Boardman, Ohio
Current Conditions -  °F | °C
As of 9:51 PM on Tuesday 21 Oct 2014 (Local Time) from KYNG Reporting Station
Overcast Overcast  
Wind Chill: 42°   Ceiling: 900
Heat Index: 47°   Visibility: 10mi
Dew Point: 45°   Wind: 10mph
Humidity: 93%   Direction: 360°N
Pressure: 30.04"   Gusts: NA
Location:  41.02°N, 80.66°W
Report Text: KYNG 220151Z 36009KT 10SM FEW004 OVC009 08/07 A3004 RMK AO2 SLP176 T00830072
Loading
Personal Weather Stations






























Interactive Weather Map
Tropical Storm Tracking
New forecast layout! Learn more

10-Day Weather Forecast

Advertisements
Track Severe Weather on mobile